Latest Weather Observations for Weipa

IDQ60801

Issued at 2:02 pm EST Tuesday 1 September 2015 (issued every 30 minutes, with the page automatically refreshed every 10 minutes)

About weather observations | Map of weather stations | Latest weather observations for QLD | Other Formats
Station Details ID: 027045 Name: WEIPA AERO Lat: -12.68 Lon: 141.92 Height: 17.96 m
Data from the previous 72 hours. | See also: Recent months at Weipa
Date/Time
EST
Temp
°C
App
Temp
°C
Dew
Point
Rel
Hum
%
Delta-T
°C
Wind Press
QNH
hPa
Press
MSL
hPa
Rain
since 9 am
mm
Dir
 
Spd
km/h
Gust
km/h
Spd
kts
Gust
kts
01/02:00pm 32.9 34.1 15.8 35 10.7 SE 4 9 2 5 1011.8 - 0.0
01/01:30pm 32.7 33.1 15.3 35 10.8 E 7 17 4 9 1012.3 - 0.0
01/01:00pm 32.6 33.0 16.2 37 10.3 ENE 9 22 5 12 1012.8 - 0.0
01/12:30pm 31.7 32.1 16.3 39 9.7 NNE 9 22 5 12 1013.4 - 0.0
01/12:00pm 30.5 31.0 17.5 45 8.3 SSE 11 19 6 10 1014.0 1013.9 0.0
01/11:30am 29.6 30.2 17.8 49 7.5 ESE 11 22 6 12 1014.6 - 0.0
01/11:00am 29.9 30.7 18.2 49 7.5 ENE 11 20 6 11 1015.1 - 0.0
01/10:30am 28.6 29.7 18.1 53 6.7 SE 9 17 5 9 1015.6 - 0.0
01/10:00am 28.4 29.4 18.6 55 6.3 E 11 19 6 10 1016.0 - 0.0
01/09:30am 26.5 28.0 18.9 63 4.9 ENE 9 19 5 10 1016.0 - 0.0
01/09:00am 25.8 26.6 19.1 66 4.3 E 13 24 7 13 1016.0 1015.9 0.0
01/08:30am 24.9 25.9 19.5 72 3.5 E 13 19 7 10 1015.9 - 0.0
01/08:00am 23.8 26.1 19.9 79 2.5 E 7 11 4 6 1015.7 - 0.0
01/07:30am 22.4 24.8 19.7 85 1.7 E 6 9 3 5 1015.3 - 0.0
01/07:00am 21.0 23.3 19.4 90 1.0 ESE 6 6 3 3 1014.8 - 0.0
01/06:30am 20.4 22.8 18.8 90 1.0 E 4 6 2 3 1014.4 - 0.0
01/06:00am 20.7 22.8 18.9 89 1.1 SE 6 7 3 4 1014.1 1014.0 0.0
01/05:30am 21.1 23.6 19.0 88 1.3 ESE 4 6 2 3 1013.8 - 0.0
01/05:00am 21.1 23.5 18.9 87 1.4 ENE 4 6 2 3 1013.5 - 0.0
01/04:30am 21.4 23.6 19.1 87 1.5 E 6 6 3 3 1013.3 - 0.0
01/04:00am 21.9 24.9 19.2 85 1.7 E 2 4 1 2 1013.3 - 0.0
01/03:30am 22.3 24.9 19.2 82 2.0 ENE 4 4 2 2 1013.4 - 0.0
01/03:00am 22.6 25.1 19.0 80 2.3 ENE 4 6 2 3 1013.5 1013.4 0.0
01/02:30am 22.9 24.8 18.9 78 2.5 NE 7 9 4 5 1013.5 - 0.0
01/02:00am 23.4 25.2 18.8 75 2.9 NE 7 9 4 5 1013.9 - 0.0
01/01:30am 23.9 26.4 19.0 74 3.1 NNE 4 6 2 3 1014.2 - 0.0
01/01:00am 24.3 26.2 18.9 72 3.4 ENE 7 11 4 6 1014.4 - 0.0
01/12:30am 24.9 27.4 19.8 73 3.3 E 6 7 3 4 1014.9 - 0.0
01/12:00am 24.5 27.8 21.9 85 1.7 ENE 7 9 4 5 1014.9 1014.8 0.0
 
Date/Time
EST
Temp
°C
App
Temp
°C
Dew
Point
Rel
Hum
%
Delta-T
°C
Wind Press
QNH
hPa
Press
MSL
hPa
Rain
since 9 am
mm
Dir
 
Spd
km/h
Gust
km/h
Spd
kts
Gust
kts
31/11:30pm 24.5 28.4 21.9 85 1.7 NE 4 6 2 3 1015.0 - 0.0
31/11:00pm 24.4 28.4 22.0 86 1.6 ENE 4 6 2 3 1014.9 - 0.0
31/10:30pm 25.0 28.9 21.9 83 2.1 N 4 4 2 2 1014.6 - 0.0
31/10:00pm 25.3 29.6 21.9 81 2.3 NNE 2 6 1 3 1014.7 - 0.0
31/09:30pm 24.4 27.8 21.7 85 1.8 NE 6 7 3 4 1014.5 - 0.0
31/09:00pm 25.0 28.8 21.6 81 2.3 NW 4 6 2 3 1014.2 1014.1 0.0
31/08:30pm 25.2 29.0 21.7 81 2.3 NW 4 7 2 4 1013.7 - 0.0
31/08:00pm 25.2 28.6 21.7 81 2.3 WNW 6 11 3 6 1013.3 - 0.0
31/07:30pm 25.2 28.1 21.7 81 2.3 WNW 9 13 5 7 1012.8 - 0.0
31/07:00pm 25.4 28.2 21.6 79 2.5 W 9 17 5 9 1012.3 - 0.0
31/06:30pm 25.6 28.2 22.0 80 2.4 W 11 20 6 11 1012.1 - 0.0
31/06:00pm 26.1 27.9 21.9 77 2.8 W 15 26 8 14 1011.9 1011.8 0.0
31/05:30pm 26.7 28.1 21.8 74 3.3 W 17 26 9 14 1011.7 - 0.0
31/05:00pm 27.2 28.1 21.6 71 3.7 W 19 33 10 18 1011.5 - 0.0
31/04:30pm 27.7 28.0 21.5 69 4.1 WNW 22 33 12 18 1011.3 - 0.0
31/04:00pm 28.5 29.3 20.7 62 5.2 W 17 32 9 17 1011.1 - 0.0
31/03:30pm 29.8 30.0 20.1 56 6.4 W 19 30 10 16 1011.2 - 0.0
31/03:00pm 30.7 31.3 19.5 51 7.3 W 15 28 8 15 1011.6 1011.5 0.0
31/02:30pm 31.8 32.2 18.9 46 8.4 W 15 22 8 12 1012.1 - 0.0
31/02:00pm 31.2 31.3 18.4 46 8.3 W 15 22 8 12 1012.5 - 0.0
31/01:30pm 30.9 31.9 18.6 48 8.0 W 11 20 6 11 1012.9 - 0.0
31/01:00pm 30.8 32.1 18.4 47 8.0 W 9 17 5 9 1013.3 - 0.0
31/12:30pm 29.5 30.8 19.3 54 6.6 SSW 11 19 6 10 1013.8 - 0.0
31/12:00pm 28.7 30.9 19.5 57 6.0 SW 7 15 4 8 1014.3 1014.2 0.0
31/11:30am 28.3 30.4 19.4 58 5.8 WSW 7 13 4 7 1014.9 - 0.0
31/11:00am 29.0 31.2 19.1 55 6.4 E 6 11 3 6 1015.3 - 0.0
31/10:30am 27.8 30.2 19.6 61 5.3 N 6 9 3 5 1015.7 - 0.0
31/10:00am 26.9 29.6 19.4 63 4.8 E 4 7 2 4 1016.0 - 0.0
31/09:30am 26.0 28.5 19.1 65 4.4 NNE 4 9 2 5 1016.0 - 0.0
31/09:00am 25.6 27.6 19.9 70 3.7 NE 9 15 5 8 1016.0 1015.9 0.0
31/08:30am 24.2 26.5 19.9 77 2.8 NNE 7 11 4 6 1015.7 - 0.0
31/08:00am 22.7 25.3 20.0 85 1.7 NE 6 7 3 4 1015.5 - 0.0
31/07:30am 21.0 23.9 19.1 89 1.2 E 2 4 1 2 1015.2 - 0.0
31/07:00am 19.2 21.6 17.9 92 0.8 ENE 2 2 1 1 1014.7 - 0.0
31/06:30am 19.0 21.7 17.8 93 0.7 CALM 0 0 0 0 1014.5 - 0.0
31/06:00am 19.2 21.6 17.9 92 0.8 ESE 2 4 1 2 1014.1 1014.0 0.0
31/05:30am 19.3 21.8 18.1 93 0.7 ESE 2 4 1 2 1013.9 - 0.0
31/05:00am 19.7 22.3 18.5 93 0.7 ESE 2 4 1 2 1013.8 - 0.0
31/04:30am 20.0 22.4 18.7 92 0.8 SE 4 4 2 2 1013.8 - 0.0
31/04:00am 20.2 22.6 18.8 92 0.9 SE 4 4 2 2 1013.7 - 0.0
31/03:30am 20.2 23.3 18.6 90 1.0 CALM 0 2 0 1 1013.8 - 0.0
31/03:00am 20.2 23.0 18.9 92 0.8 ENE 2 2 1 1 1014.0 1013.9 0.0
31/02:30am 20.7 23.6 19.0 90 1.1 E 2 2 1 1 1014.2 - 0.0
31/02:00am 20.8 24.1 19.1 90 1.1 CALM 0 2 0 1 1014.5 - 0.0
31/01:30am 21.2 24.6 19.3 89 1.2 CALM 0 2 0 1 1014.8 - 0.0
31/01:00am 21.5 24.8 19.1 86 1.5 CALM 0 2 0 1 1014.9 - 0.0
31/12:30am 21.6 24.9 19.2 86 1.5 CALM 0 2 0 1 1015.2 - 0.0
31/12:00am 21.6 24.5 19.1 86 1.6 NNW 2 6 1 3 1015.2 1015.1 0.0
 
Date/Time
EST
Temp
°C
App
Temp
°C
Dew
Point
Rel
Hum
%
Delta-T
°C
Wind Press
QNH
hPa
Press
MSL
hPa
Rain
since 9 am
mm
Dir
 
Spd
km/h
Gust
km/h
Spd
kts
Gust
kts
30/11:30pm 21.9 25.3 19.3 85 1.7 CALM 0 2 0 1 1015.5 - 0.0
30/11:00pm 22.6 26.1 19.5 82 2.0 CALM 0 0 0 0 1015.4 - 0.0
30/10:30pm 23.4 26.9 19.5 79 2.5 CALM 0 0 0 0 1015.4 - 0.0
30/10:00pm 24.3 27.1 19.6 75 3.0 SW 4 6 2 3 1015.2 - 0.0
30/09:30pm 24.7 27.8 19.5 73 3.3 S 2 6 1 3 1015.1 - 0.0
30/09:00pm 24.9 28.0 19.5 72 3.5 SW 2 6 1 3 1014.8 1014.7 0.0
30/08:30pm 24.9 27.5 19.3 71 3.6 W 4 9 2 5 1014.5 - 0.0
30/08:00pm 24.8 27.1 19.4 72 3.5 W 6 9 3 5 1014.1 - 0.0
30/07:30pm 25.2 27.3 19.4 70 3.7 W 7 15 4 8 1013.7 - 0.0
30/07:00pm 25.4 27.2 19.6 70 3.7 W 9 19 5 10 1013.1 - 0.0
30/06:30pm 25.8 27.3 19.7 69 3.9 W 11 20 6 11 1012.7 - 0.0
30/06:00pm 26.8 28.3 19.8 65 4.6 W 11 20 6 11 1012.4 1012.3 0.0
30/05:30pm 27.7 28.9 19.8 62 5.1 W 13 22 7 12 1012.2 - 0.0
30/05:00pm 28.3 29.1 19.1 57 5.9 WSW 13 24 7 13 1011.9 - 0.0
30/04:30pm 29.5 30.1 18.6 52 7.0 WSW 13 24 7 13 1011.9 - 0.0
30/04:00pm 29.7 29.2 18.6 51 7.2 W 19 24 10 13 1011.7 - 0.0
30/03:30pm 30.3 30.5 18.5 49 7.6 WSW 15 22 8 12 1011.8 - 0.0
30/03:00pm 30.7 30.5 18.5 48 7.9 WSW 17 30 9 16 1012.0 1011.9 0.0
30/02:30pm 31.8 32.2 18.1 44 8.8 WSW 13 30 7 16 1012.3 - 0.0
30/02:19pm 32.8 32.6 15.6 35 10.7 SW 11 19 6 10 1012.4 - 0.0
30/02:02pm 31.6 31.9 16.1 39 9.7 SSW 9 17 5 9 1012.6 - 0.0
30/02:00pm 31.8 32.1 16.1 38 9.8 SSW 9 19 5 10 1012.7 - 0.0
30/01:30pm 31.1 32.2 17.2 43 8.8 SW 7 15 4 8 1013.3 - 0.0
30/01:00pm 31.3 32.1 17.2 42 9.0 SSW 9 17 5 9 1013.7 - 0.0
30/12:30pm 30.8 32.0 16.8 43 8.8 E 6 15 3 8 1014.4 - 0.0
30/12:00pm 29.8 29.6 16.6 45 8.3 SE 13 22 7 12 1015.0 1014.9 0.0
30/11:30am 30.0 31.1 17.1 46 8.1 ESE 7 17 4 9 1015.8 - 0.0
30/11:00am 28.7 30.1 17.9 52 6.9 ESE 7 17 4 9 1016.4 - 0.0
30/10:30am 27.6 28.4 18.2 56 6.0 ESE 11 19 6 10 1016.8 - 0.0
30/10:00am 26.7 26.6 17.9 58 5.6 ESE 15 22 8 12 1016.9 - 0.0
30/09:30am 26.2 26.7 18.3 61 5.0 E 13 20 7 11 1016.9 - 0.0
30/09:00am 24.9 26.2 18.5 67 4.1 ESE 9 17 5 9 1016.8 1016.7 0.0
30/08:30am 23.3 25.1 18.8 76 2.8 SSE 7 9 4 5 1016.7 - 0.0
30/08:00am 22.1 23.9 18.4 79 2.3 SE 6 9 3 5 1016.2 - 0.0
30/07:30am 20.6 23.1 18.2 86 1.5 SE 2 4 1 2 1015.9 - 0.0
30/07:00am 18.8 20.9 17.2 90 1.0 ESE 2 4 1 2 1015.6 - 0.0
30/06:30am 18.3 20.3 16.9 91 0.8 ESE 2 2 1 1 1015.3 - 0.0
30/06:00am 18.7 21.2 17.2 91 0.9 CALM 0 2 0 1 1015.1 1015.0 0.0
30/05:30am 18.5 20.0 16.7 89 1.1 ESE 4 6 2 3 1015.0 - 0.0
30/05:00am 18.6 20.7 17.1 91 0.9 ESE 2 2 1 1 1014.8 - 0.0
30/04:30am 18.6 20.9 16.8 89 1.1 CALM 0 2 0 1 1014.7 - 0.0
30/04:00am 19.0 20.9 16.8 87 1.3 ESE 2 4 1 2 1014.7 - 0.0
30/03:30am 19.2 21.1 16.8 86 1.4 SE 2 4 1 2 1014.8 - 0.0
30/03:00am 19.3 21.7 17.1 87 1.3 CALM 0 2 0 1 1014.9 1014.8 0.0
30/02:30am 19.2 21.6 17.1 88 1.3 CALM 0 0 0 0 1015.0 - 0.0
30/02:00am 19.5 21.9 17.1 86 1.5 CALM 0 0 0 0 1015.2 - 0.0
30/01:30am 19.8 22.2 17.1 84 1.6 CALM 0 0 0 0 1015.5 - 0.0
30/01:00am 20.3 22.8 17.3 83 1.8 CALM 0 0 0 0 1015.6 - 0.0
30/12:30am 20.7 23.3 17.4 81 2.0 CALM 0 0 0 0 1015.7 - 0.0
30/12:00am 21.2 23.7 17.2 78 2.4 CALM 0 2 0 1 1015.8 1015.7 0.0
 
Date/Time
EST
Temp
°C
App
Temp
°C
Dew
Point
Rel
Hum
%
Delta-T
°C
Wind Press
QNH
hPa
Press
MSL
hPa
Rain
since 9 am
mm
Dir
 
Spd
km/h
Gust
km/h
Spd
kts
Gust
kts
29/11:30pm 22.4 24.6 17.4 73 3.1 E 2 4 1 2 1016.0 - 0.0
29/11:00pm 23.1 24.3 16.9 68 3.8 E 6 9 3 5 1015.9 - 0.0
29/10:30pm 23.9 25.0 16.7 64 4.4 E 6 13 3 7 1015.8 - 0.0
29/10:00pm 24.5 25.0 16.6 61 4.9 E 9 13 5 7 1015.7 - 0.0
29/09:30pm 25.1 25.6 16.6 59 5.2 E 9 17 5 9 1015.5 - 0.0
29/09:00pm 25.7 27.0 17.1 59 5.3 E 6 13 3 7 1015.3 1015.2 0.0
29/08:30pm 26.5 26.3 16.7 55 6.1 E 13 20 7 11 1015.0 - 0.0
29/08:00pm 25.4 28.0 20.1 72 3.4 NNE 6 9 3 5 1014.5 - 0.0
29/07:30pm 25.5 29.3 21.0 76 3.0 NW 2 6 1 3 1013.8 - 0.0
29/07:00pm 26.2 29.4 20.4 70 3.8 WNW 4 7 2 4 1013.3 - 0.0
29/06:30pm 27.2 30.5 20.7 67 4.3 WNW 4 6 2 3 1012.8 - 0.0
29/06:00pm 28.4 31.5 20.3 61 5.3 W 4 6 2 3 1012.4 1012.3 0.0
29/05:30pm 29.6 31.9 19.5 54 6.6 WNW 6 13 3 7 1012.0 - 0.0
29/05:00pm 29.6 32.0 20.0 56 6.3 WNW 7 15 4 8 1011.8 - 0.0
29/04:30pm 33.0 32.2 14.1 32 11.5 E 11 22 6 12 1011.7 - 0.0
29/04:00pm 33.0 31.4 14.0 31 11.6 ESE 15 26 8 14 1011.6 - 0.0
29/03:30pm 33.7 31.2 13.6 29 12.2 E 19 33 10 18 1011.7 - 0.0
29/03:00pm 33.3 31.5 13.2 29 12.1 E 15 20 8 11 1012.2 1012.1 0.0
29/02:30pm 32.7 29.7 13.7 31 11.5 ESE 22 30 12 16 1012.6 - 0.0

Other Formats:

Comma delimited format used in spreadsheet applications
http://www.bom.gov.au/fwo/IDQ60801/IDQ60801.94170.axf

JavaScript Object Notation format (JSON) in row-major order
http://www.bom.gov.au/fwo/IDQ60801/IDQ60801.94170.json